sensor_id;sensor_type;location;lat;lon;timestamp;noise_LAeq;noise_LA_min;noise_LA_max;noise_LA01;noise_LA95
47109;Laerm;32856;51.422;6.794;2022-10-17T00:01:33;49.42;44.94;57.05;;
47109;Laerm;32856;51.422;6.794;2022-10-17T00:04:00;57.42;45.30;74.59;;
47109;Laerm;32856;51.422;6.794;2022-10-17T00:06:28;49.36;44.08;54.27;;
47109;Laerm;32856;51.422;6.794;2022-10-17T00:08:55;49.50;44.69;62.68;;
47109;Laerm;32856;51.422;6.794;2022-10-17T00:11:27;49.03;45.39;54.13;;
47109;Laerm;32856;51.422;6.794;2022-10-17T00:13:55;56.98;45.07;76.05;;
47109;Laerm;32856;51.422;6.794;2022-10-17T00:16:25;48.14;43.99;52.76;;
47109;Laerm;32856;51.422;6.794;2022-10-17T00:18:52;52.22;44.35;68.31;;
47109;Laerm;32856;51.422;6.794;2022-10-17T00:21:20;48.16;43.99;52.80;;
47109;Laerm;32856;51.422;6.794;2022-10-17T00:23:48;51.83;47.81;66.30;;
47109;Laerm;32856;51.422;6.794;2022-10-17T00:26:16;51.81;45.30;66.64;;
47109;Laerm;32856;51.422;6.794;2022-10-17T00:28:46;48.53;43.04;52.44;;
47109;Laerm;32856;51.422;6.794;2022-10-17T00:31:15;50.19;45.45;54.76;;
47109;Laerm;32856;51.422;6.794;2022-10-17T00:33:43;51.50;46.69;56.89;;
47109;Laerm;32856;51.422;6.794;2022-10-17T00:36:12;50.60;45.89;55.13;;
47109;Laerm;32856;51.422;6.794;2022-10-17T00:38:40;50.95;44.98;56.38;;
47109;Laerm;32856;51.422;6.794;2022-10-17T00:41:09;50.70;46.20;54.72;;
47109;Laerm;32856;51.422;6.794;2022-10-17T00:46:36;57.70;45.45;76.34;;
47109;Laerm;32856;51.422;6.794;2022-10-17T00:49:04;49.80;45.20;53.23;;
47109;Laerm;32856;51.422;6.794;2022-10-17T00:51:35;50.52;44.47;54.85;;
47109;Laerm;32856;51.422;6.794;2022-10-17T00:54:04;52.01;47.09;58.77;;
47109;Laerm;32856;51.422;6.794;2022-10-17T00:56:32;57.09;45.42;76.40;;
47109;Laerm;32856;51.422;6.794;2022-10-17T00:59:07;51.26;46.64;55.61;;
47109;Laerm;32856;51.422;6.794;2022-10-17T01:01:36;50.03;45.97;53.79;;
47109;Laerm;32856;51.422;6.794;2022-10-17T01:04:04;51.12;46.35;56.44;;
47109;Laerm;32856;51.422;6.794;2022-10-17T01:06:32;52.77;48.42;60.72;;
47109;Laerm;32856;51.422;6.794;2022-10-17T01:09:08;51.74;47.10;56.34;;
47109;Laerm;32856;51.422;6.794;2022-10-17T01:11:36;50.81;47.26;54.42;;
47109;Laerm;32856;51.422;6.794;2022-10-17T01:14:08;50.22;44.87;54.68;;
47109;Laerm;32856;51.422;6.794;2022-10-17T01:16:43;52.63;46.45;59.40;;
47109;Laerm;32856;51.422;6.794;2022-10-17T01:22:03;51.04;46.84;55.12;;
47109;Laerm;32856;51.422;6.794;2022-10-17T01:24:47;53.11;47.50;59.80;;
47109;Laerm;32856;51.422;6.794;2022-10-17T01:30:08;54.32;47.83;69.30;;
47109;Laerm;32856;51.422;6.794;2022-10-17T01:32:43;51.91;46.20;56.14;;
47109;Laerm;32856;51.422;6.794;2022-10-17T01:35:13;51.56;46.78;63.33;;
47109;Laerm;32856;51.422;6.794;2022-10-17T01:37:49;56.47;46.38;65.05;;
47109;Laerm;32856;51.422;6.794;2022-10-17T01:40:20;51.78;46.25;57.60;;
47109;Laerm;32856;51.422;6.794;2022-10-17T01:42:51;55.52;47.44;72.27;;
47109;Laerm;32856;51.422;6.794;2022-10-17T01:45:20;52.41;47.14;56.74;;
47109;Laerm;32856;51.422;6.794;2022-10-17T01:47:53;56.32;47.77;74.91;;
47109;Laerm;32856;51.422;6.794;2022-10-17T01:50:24;52.48;47.72;56.11;;
47109;Laerm;32856;51.422;6.794;2022-10-17T01:52:53;55.68;47.65;72.54;;
47109;Laerm;32856;51.422;6.794;2022-10-17T01:55:23;53.71;48.90;65.17;;
47109;Laerm;32856;51.422;6.794;2022-10-17T01:57:54;56.84;47.61;76.07;;
47109;Laerm;32856;51.422;6.794;2022-10-17T02:00:28;52.74;48.48;57.85;;
47109;Laerm;32856;51.422;6.794;2022-10-17T02:02:59;53.76;50.38;63.76;;
47109;Laerm;32856;51.422;6.794;2022-10-17T02:05:29;53.85;50.22;57.81;;
47109;Laerm;32856;51.422;6.794;2022-10-17T02:07:57;57.30;46.78;74.11;;
47109;Laerm;32856;51.422;6.794;2022-10-17T02:10:28;53.83;49.12;59.22;;
47109;Laerm;32856;51.422;6.794;2022-10-17T02:13:08;60.79;50.56;76.50;;
47109;Laerm;32856;51.422;6.794;2022-10-17T02:15:43;57.96;49.81;73.08;;
47109;Laerm;32856;51.422;6.794;2022-10-17T02:18:17;55.99;49.28;73.58;;
47109;Laerm;32856;51.422;6.794;2022-10-17T02:20:50;55.34;50.05;70.89;;
47109;Laerm;32856;51.422;6.794;2022-10-17T02:23:35;53.71;50.03;58.96;;
47109;Laerm;32856;51.422;6.794;2022-10-17T02:26:05;58.98;49.70;75.30;;
47109;Laerm;32856;51.422;6.794;2022-10-17T02:28:37;53.26;49.51;57.81;;
47109;Laerm;32856;51.422;6.794;2022-10-17T02:31:06;58.49;49.38;75.78;;
47109;Laerm;32856;51.422;6.794;2022-10-17T02:33:44;53.58;47.20;58.16;;
47109;Laerm;32856;51.422;6.794;2022-10-17T02:36:16;53.98;48.85;58.68;;
47109;Laerm;32856;51.422;6.794;2022-10-17T02:38:45;58.75;51.71;75.75;;
47109;Laerm;32856;51.422;6.794;2022-10-17T02:41:14;55.48;51.73;59.53;;
47109;Laerm;32856;51.422;6.794;2022-10-17T02:43:43;63.38;50.35;79.21;;
47109;Laerm;32856;51.422;6.794;2022-10-17T02:46:12;60.42;51.30;78.07;;
47109;Laerm;32856;51.422;6.794;2022-10-17T02:48:47;56.07;52.98;60.99;;
47109;Laerm;32856;51.422;6.794;2022-10-17T02:51:18;59.23;52.87;73.54;;
47109;Laerm;32856;51.422;6.794;2022-10-17T02:53:58;60.04;50.31;76.07;;
47109;Laerm;32856;51.422;6.794;2022-10-17T02:56:27;55.32;51.86;59.25;;
47109;Laerm;32856;51.422;6.794;2022-10-17T02:58:57;57.89;50.96;75.59;;
47109;Laerm;32856;51.422;6.794;2022-10-17T03:01:25;59.66;53.07;73.81;;
47109;Laerm;32856;51.422;6.794;2022-10-17T03:04:11;58.46;53.38;74.25;;
47109;Laerm;32856;51.422;6.794;2022-10-17T03:06:39;61.18;53.26;77.72;;
47109;Laerm;32856;51.422;6.794;2022-10-17T03:09:06;57.44;53.17;60.72;;
47109;Laerm;32856;51.422;6.794;2022-10-17T03:11:35;58.49;53.79;71.67;;
47109;Laerm;32856;51.422;6.794;2022-10-17T03:14:03;60.79;53.87;74.81;;
47109;Laerm;32856;51.422;6.794;2022-10-17T03:16:30;61.10;53.69;75.52;;
47109;Laerm;32856;51.422;6.794;2022-10-17T03:18:58;62.23;54.81;76.78;;
47109;Laerm;32856;51.422;6.794;2022-10-17T03:21:26;60.10;54.90;76.35;;
47109;Laerm;32856;51.422;6.794;2022-10-17T03:23:54;63.39;54.99;79.75;;
47109;Laerm;32856;51.422;6.794;2022-10-17T03:26:22;61.83;54.38;75.11;;
47109;Laerm;32856;51.422;6.794;2022-10-17T03:28:50;60.78;55.06;76.51;;
47109;Laerm;32856;51.422;6.794;2022-10-17T03:31:19;60.55;54.97;75.84;;
47109;Laerm;32856;51.422;6.794;2022-10-17T03:33:51;63.41;53.99;78.34;;
47109;Laerm;32856;51.422;6.794;2022-10-17T03:36:18;57.84;53.79;62.09;;
47109;Laerm;32856;51.422;6.794;2022-10-17T03:38:47;60.19;55.15;74.35;;
47109;Laerm;32856;51.422;6.794;2022-10-17T03:41:15;63.39;55.32;77.97;;
47109;Laerm;32856;51.422;6.794;2022-10-17T03:43:43;63.65;55.26;77.62;;
47109;Laerm;32856;51.422;6.794;2022-10-17T03:46:11;62.52;55.67;76.38;;
47109;Laerm;32856;51.422;6.794;2022-10-17T03:48:39;60.24;54.31;74.05;;
47109;Laerm;32856;51.422;6.794;2022-10-17T03:51:16;60.07;54.18;76.02;;
47109;Laerm;32856;51.422;6.794;2022-10-17T03:54:07;62.18;54.45;76.36;;
47109;Laerm;32856;51.422;6.794;2022-10-17T03:56:34;62.46;53.95;76.37;;
47109;Laerm;32856;51.422;6.794;2022-10-17T03:59:02;61.64;54.39;73.48;;
47109;Laerm;32856;51.422;6.794;2022-10-17T04:01:30;62.33;54.03;73.38;;
47109;Laerm;32856;51.422;6.794;2022-10-17T04:03:57;60.75;54.81;75.70;;
47109;Laerm;32856;51.422;6.794;2022-10-17T04:06:25;62.57;55.81;76.51;;
47109;Laerm;32856;51.422;6.794;2022-10-17T04:08:52;60.92;54.94;74.71;;
47109;Laerm;32856;51.422;6.794;2022-10-17T04:11:21;59.77;54.30;76.00;;
47109;Laerm;32856;51.422;6.794;2022-10-17T04:13:51;64.50;55.21;80.79;;
47109;Laerm;32856;51.422;6.794;2022-10-17T04:16:19;65.21;54.76;80.71;;
47109;Laerm;32856;51.422;6.794;2022-10-17T04:18:51;62.98;55.65;74.32;;
47109;Laerm;32856;51.422;6.794;2022-10-17T04:21:18;63.67;55.44;78.74;;
47109;Laerm;32856;51.422;6.794;2022-10-17T04:23:46;64.34;55.58;76.93;;
47109;Laerm;32856;51.422;6.794;2022-10-17T04:26:13;62.06;55.41;76.37;;
47109;Laerm;32856;51.422;6.794;2022-10-17T04:28:42;62.80;54.22;76.79;;
47109;Laerm;32856;51.422;6.794;2022-10-17T04:31:10;62.87;55.48;78.82;;
47109;Laerm;32856;51.422;6.794;2022-10-17T04:33:41;63.57;55.04;74.25;;
47109;Laerm;32856;51.422;6.794;2022-10-17T04:36:11;61.97;55.30;73.80;;
47109;Laerm;32856;51.422;6.794;2022-10-17T04:38:40;64.06;55.58;76.05;;
47109;Laerm;32856;51.422;6.794;2022-10-17T04:41:17;63.92;55.86;76.11;;
47109;Laerm;32856;51.422;6.794;2022-10-17T04:43:46;63.77;55.47;75.68;;
47109;Laerm;32856;51.422;6.794;2022-10-17T04:46:15;64.70;54.88;78.95;;
47109;Laerm;32856;51.422;6.794;2022-10-17T04:48:42;66.19;56.53;78.98;;
47109;Laerm;32856;51.422;6.794;2022-10-17T04:51:11;64.30;55.55;75.50;;
47109;Laerm;32856;51.422;6.794;2022-10-17T04:53:39;64.27;55.61;77.78;;
47109;Laerm;32856;51.422;6.794;2022-10-17T04:56:07;65.73;55.28;80.11;;
47109;Laerm;32856;51.422;6.794;2022-10-17T04:58:35;63.15;55.73;74.09;;
47109;Laerm;32856;51.422;6.794;2022-10-17T05:01:05;65.05;56.69;78.38;;
47109;Laerm;32856;51.422;6.794;2022-10-17T05:03:33;63.66;56.82;74.22;;
47109;Laerm;32856;51.422;6.794;2022-10-17T05:06:05;65.36;55.76;76.04;;
47109;Laerm;32856;51.422;6.794;2022-10-17T05:08:33;64.91;55.13;77.21;;
47109;Laerm;32856;51.422;6.794;2022-10-17T05:11:00;66.14;54.53;79.74;;
47109;Laerm;32856;51.422;6.794;2022-10-17T05:13:28;63.24;52.33;74.31;;
47109;Laerm;32856;51.422;6.794;2022-10-17T05:15:57;65.32;55.50;79.11;;
47109;Laerm;32856;51.422;6.794;2022-10-17T05:18:33;67.16;56.06;84.15;;
47109;Laerm;32856;51.422;6.794;2022-10-17T05:21:01;64.07;55.03;75.51;;
47109;Laerm;32856;51.422;6.794;2022-10-17T05:23:29;65.43;52.41;80.69;;
47109;Laerm;32856;51.422;6.794;2022-10-17T05:25:56;63.34;52.69;76.14;;
47109;Laerm;32856;51.422;6.794;2022-10-17T05:28:24;66.83;53.48;80.95;;
47109;Laerm;32856;51.422;6.794;2022-10-17T05:30:52;66.19;52.84;80.18;;
47109;Laerm;32856;51.422;6.794;2022-10-17T05:33:21;65.53;52.01;79.21;;
47109;Laerm;32856;51.422;6.794;2022-10-17T05:35:50;64.96;53.35;75.02;;
47109;Laerm;32856;51.422;6.794;2022-10-17T05:38:17;66.40;53.08;79.78;;
47109;Laerm;32856;51.422;6.794;2022-10-17T05:40:45;66.14;52.28;78.20;;
47109;Laerm;32856;51.422;6.794;2022-10-17T05:43:12;65.16;53.29;78.47;;
47109;Laerm;32856;51.422;6.794;2022-10-17T05:45:40;67.02;54.76;79.29;;
47109;Laerm;32856;51.422;6.794;2022-10-17T05:48:07;64.38;54.29;76.75;;
47109;Laerm;32856;51.422;6.794;2022-10-17T05:50:35;66.64;52.56;81.78;;
47109;Laerm;32856;51.422;6.794;2022-10-17T05:53:04;66.64;53.42;78.77;;
47109;Laerm;32856;51.422;6.794;2022-10-17T05:55:31;66.30;53.96;75.78;;
47109;Laerm;32856;51.422;6.794;2022-10-17T05:57:59;65.64;52.64;77.45;;
47109;Laerm;32856;51.422;6.794;2022-10-17T06:04:07;66.31;52.53;78.10;;
47109;Laerm;32856;51.422;6.794;2022-10-17T06:09:29;66.45;55.31;76.42;;
47109;Laerm;32856;51.422;6.794;2022-10-17T06:12:00;65.94;54.70;77.80;;
47109;Laerm;32856;51.422;6.794;2022-10-17T06:14:27;66.66;55.99;80.99;;
47109;Laerm;32856;51.422;6.794;2022-10-17T06:16:55;65.09;55.77;76.44;;
47109;Laerm;32856;51.422;6.794;2022-10-17T06:19:23;65.63;55.55;76.61;;
47109;Laerm;32856;51.422;6.794;2022-10-17T06:21:51;65.90;54.46;77.38;;
47109;Laerm;32856;51.422;6.794;2022-10-17T06:24:18;65.78;54.92;77.66;;
47109;Laerm;32856;51.422;6.794;2022-10-17T06:26:47;68.03;56.58;79.91;;
47109;Laerm;32856;51.422;6.794;2022-10-17T06:29:16;66.22;53.73;77.58;;
47109;Laerm;32856;51.422;6.794;2022-10-17T06:31:43;64.02;55.86;74.95;;
47109;Laerm;32856;51.422;6.794;2022-10-17T06:34:11;68.09;56.73;86.02;;
47109;Laerm;32856;51.422;6.794;2022-10-17T06:36:39;67.57;56.80;81.33;;
47109;Laerm;32856;51.422;6.794;2022-10-17T06:39:06;68.70;56.47;83.76;;
47109;Laerm;32856;51.422;6.794;2022-10-17T06:41:34;66.21;54.77;82.52;;
47109;Laerm;32856;51.422;6.794;2022-10-17T06:44:06;67.34;56.53;81.94;;
47109;Laerm;32856;51.422;6.794;2022-10-17T06:46:44;65.77;54.81;82.15;;
47109;Laerm;32856;51.422;6.794;2022-10-17T06:49:12;67.15;56.85;78.21;;
47109;Laerm;32856;51.422;6.794;2022-10-17T06:51:40;64.57;55.91;75.35;;
47109;Laerm;32856;51.422;6.794;2022-10-17T06:54:09;65.23;56.41;75.58;;
47109;Laerm;32856;51.422;6.794;2022-10-17T06:56:37;64.93;55.89;77.05;;
47109;Laerm;32856;51.422;6.794;2022-10-17T06:59:10;67.69;56.07;80.65;;
47109;Laerm;32856;51.422;6.794;2022-10-17T07:01:52;63.57;54.69;76.02;;
47109;Laerm;32856;51.422;6.794;2022-10-17T07:04:21;66.35;53.82;78.89;;
47109;Laerm;32856;51.422;6.794;2022-10-17T07:06:51;65.41;53.31;79.55;;
47109;Laerm;32856;51.422;6.794;2022-10-17T07:09:19;65.96;55.22;78.20;;
47109;Laerm;32856;51.422;6.794;2022-10-17T07:11:49;63.71;53.95;73.78;;
47109;Laerm;32856;51.422;6.794;2022-10-17T07:14:30;67.22;55.01;78.37;;
47109;Laerm;32856;51.422;6.794;2022-10-17T07:17:16;67.04;54.60;84.23;;
47109;Laerm;32856;51.422;6.794;2022-10-17T07:19:44;63.25;54.60;75.54;;
47109;Laerm;32856;51.422;6.794;2022-10-17T07:22:41;65.50;54.45;76.65;;
47109;Laerm;32856;51.422;6.794;2022-10-17T07:25:09;67.84;53.35;80.70;;
47109;Laerm;32856;51.422;6.794;2022-10-17T07:28:02;65.46;53.65;76.29;;
47109;Laerm;32856;51.422;6.794;2022-10-17T07:34:21;64.47;53.46;77.08;;
47109;Laerm;32856;51.422;6.794;2022-10-17T07:37:10;62.51;52.67;74.22;;
47109;Laerm;32856;51.422;6.794;2022-10-17T07:39:51;64.91;50.51;77.99;;
47109;Laerm;32856;51.422;6.794;2022-10-17T07:42:27;64.61;51.89;75.80;;
47109;Laerm;32856;51.422;6.794;2022-10-17T07:45:28;67.61;54.87;80.86;;
47109;Laerm;32856;51.422;6.794;2022-10-17T07:47:58;65.78;55.20;79.43;;
47109;Laerm;32856;51.422;6.794;2022-10-17T07:50:27;66.25;56.15;78.11;;
47109;Laerm;32856;51.422;6.794;2022-10-17T07:52:54;65.45;55.63;75.32;;
47109;Laerm;32856;51.422;6.794;2022-10-17T07:55:22;66.45;55.73;77.61;;
47109;Laerm;32856;51.422;6.794;2022-10-17T07:57:49;64.94;55.18;75.05;;
47109;Laerm;32856;51.422;6.794;2022-10-17T08:00:17;68.04;55.18;79.22;;
47109;Laerm;32856;51.422;6.794;2022-10-17T08:02:44;65.98;54.33;78.01;;
47109;Laerm;32856;51.422;6.794;2022-10-17T08:05:12;63.81;54.59;76.32;;
47109;Laerm;32856;51.422;6.794;2022-10-17T08:07:41;63.83;52.84;74.75;;
47109;Laerm;32856;51.422;6.794;2022-10-17T08:10:09;64.47;54.71;77.24;;
47109;Laerm;32856;51.422;6.794;2022-10-17T08:12:37;66.01;53.58;76.67;;
47109;Laerm;32856;51.422;6.794;2022-10-17T08:15:05;65.76;53.52;78.59;;
47109;Laerm;32856;51.422;6.794;2022-10-17T08:17:33;65.85;54.27;83.52;;
47109;Laerm;32856;51.422;6.794;2022-10-17T08:20:01;65.52;54.21;76.95;;
47109;Laerm;32856;51.422;6.794;2022-10-17T08:22:28;65.24;55.07;76.43;;
47109;Laerm;32856;51.422;6.794;2022-10-17T08:25:10;66.18;55.46;79.61;;
47109;Laerm;32856;51.422;6.794;2022-10-17T08:27:37;65.68;55.69;79.59;;
47109;Laerm;32856;51.422;6.794;2022-10-17T08:30:05;65.00;54.34;80.15;;
47109;Laerm;32856;51.422;6.794;2022-10-17T08:32:32;65.85;53.16;80.50;;
47109;Laerm;32856;51.422;6.794;2022-10-17T08:35:00;65.71;53.83;78.36;;
47109;Laerm;32856;51.422;6.794;2022-10-17T08:37:27;64.28;55.40;77.35;;
47109;Laerm;32856;51.422;6.794;2022-10-17T08:39:56;66.62;54.51;78.25;;
47109;Laerm;32856;51.422;6.794;2022-10-17T08:42:32;63.76;54.07;75.29;;
47109;Laerm;32856;51.422;6.794;2022-10-17T08:45:06;66.96;55.73;78.71;;
47109;Laerm;32856;51.422;6.794;2022-10-17T08:47:37;65.75;55.60;76.26;;
47109;Laerm;32856;51.422;6.794;2022-10-17T08:50:08;64.63;55.38;74.49;;
47109;Laerm;32856;51.422;6.794;2022-10-17T08:52:39;62.54;54.55;74.30;;
47109;Laerm;32856;51.422;6.794;2022-10-17T08:55:12;65.90;55.33;79.94;;
47109;Laerm;32856;51.422;6.794;2022-10-17T08:57:42;64.22;53.91;77.05;;
47109;Laerm;32856;51.422;6.794;2022-10-17T09:00:12;65.21;54.56;78.18;;
47109;Laerm;32856;51.422;6.794;2022-10-17T09:02:43;65.55;54.99;80.75;;
47109;Laerm;32856;51.422;6.794;2022-10-17T09:08:19;64.73;54.49;76.21;;
47109;Laerm;32856;51.422;6.794;2022-10-17T09:10:53;62.23;53.59;73.48;;
47109;Laerm;32856;51.422;6.794;2022-10-17T09:13:36;65.89;54.52;81.35;;
47109;Laerm;32856;51.422;6.794;2022-10-17T09:16:09;61.69;54.47;76.35;;
47109;Laerm;32856;51.422;6.794;2022-10-17T09:18:39;65.66;54.56;76.17;;
47109;Laerm;32856;51.422;6.794;2022-10-17T09:21:14;62.77;53.79;74.87;;
47109;Laerm;32856;51.422;6.794;2022-10-17T09:23:44;65.64;55.29;81.24;;
47109;Laerm;32856;51.422;6.794;2022-10-17T09:26:13;64.01;53.01;75.13;;
47109;Laerm;32856;51.422;6.794;2022-10-17T09:28:51;65.82;54.04;84.23;;
47109;Laerm;32856;51.422;6.794;2022-10-17T09:31:19;63.34;52.22;77.96;;
47109;Laerm;32856;51.422;6.794;2022-10-17T09:33:49;62.98;52.19;78.64;;
47109;Laerm;32856;51.422;6.794;2022-10-17T09:36:21;63.16;54.42;75.08;;
47109;Laerm;32856;51.422;6.794;2022-10-17T09:38:49;66.68;55.85;77.15;;
47109;Laerm;32856;51.422;6.794;2022-10-17T09:41:19;66.10;55.21;77.61;;
47109;Laerm;32856;51.422;6.794;2022-10-17T09:46:39;65.62;52.63;77.62;;
47109;Laerm;32856;51.422;6.794;2022-10-17T09:49:09;65.81;54.04;74.87;;
47109;Laerm;32856;51.422;6.794;2022-10-17T09:51:40;66.77;54.56;78.15;;
47109;Laerm;32856;51.422;6.794;2022-10-17T09:54:10;68.81;55.63;85.71;;
47109;Laerm;32856;51.422;6.794;2022-10-17T09:56:55;64.99;54.11;74.40;;
47109;Laerm;32856;51.422;6.794;2022-10-17T09:59:28;65.75;53.50;79.73;;
47109;Laerm;32856;51.422;6.794;2022-10-17T10:02:06;63.86;54.44;75.31;;
47109;Laerm;32856;51.422;6.794;2022-10-17T10:04:34;65.56;53.22;76.43;;
47109;Laerm;32856;51.422;6.794;2022-10-17T10:07:21;65.61;53.34;79.61;;
47109;Laerm;32856;51.422;6.794;2022-10-17T10:09:57;67.21;54.46;78.72;;
47109;Laerm;32856;51.422;6.794;2022-10-17T10:12:26;64.30;54.25;77.48;;
47109;Laerm;32856;51.422;6.794;2022-10-17T10:14:54;64.85;53.82;78.15;;
47109;Laerm;32856;51.422;6.794;2022-10-17T10:17:27;64.83;53.72;75.88;;
47109;Laerm;32856;51.422;6.794;2022-10-17T10:19:55;64.75;53.42;78.47;;
47109;Laerm;32856;51.422;6.794;2022-10-17T10:22:22;65.04;51.67;76.93;;
47109;Laerm;32856;51.422;6.794;2022-10-17T10:27:32;65.36;52.60;76.74;;
47109;Laerm;32856;51.422;6.794;2022-10-17T10:30:00;64.51;51.08;77.50;;
47109;Laerm;32856;51.422;6.794;2022-10-17T10:32:41;65.17;52.79;75.92;;
47109;Laerm;32856;51.422;6.794;2022-10-17T10:35:17;61.20;52.10;74.14;;
47109;Laerm;32856;51.422;6.794;2022-10-17T10:37:45;63.91;53.05;80.24;;
47109;Laerm;32856;51.422;6.794;2022-10-17T10:40:15;62.62;51.80;74.28;;
47109;Laerm;32856;51.422;6.794;2022-10-17T10:42:48;67.99;53.63;81.27;;
47109;Laerm;32856;51.422;6.794;2022-10-17T10:45:17;65.82;53.66;79.27;;
47109;Laerm;32856;51.422;6.794;2022-10-17T10:48:12;64.56;53.72;77.44;;
47109;Laerm;32856;51.422;6.794;2022-10-17T10:50:43;64.10;52.62;74.75;;
47109;Laerm;32856;51.422;6.794;2022-10-17T10:53:14;65.98;52.26;77.27;;
47109;Laerm;32856;51.422;6.794;2022-10-17T10:55:45;65.99;52.30;77.77;;
47109;Laerm;32856;51.422;6.794;2022-10-17T10:58:20;62.60;52.62;74.51;;
47109;Laerm;32856;51.422;6.794;2022-10-17T11:00:50;64.39;53.80;75.70;;
47109;Laerm;32856;51.422;6.794;2022-10-17T11:03:32;65.89;53.05;84.50;;
47109;Laerm;32856;51.422;6.794;2022-10-17T11:06:02;64.23;52.25;76.72;;
47109;Laerm;32856;51.422;6.794;2022-10-17T11:08:32;63.78;53.06;79.36;;
47109;Laerm;32856;51.422;6.794;2022-10-17T11:11:04;67.19;52.89;79.71;;
47109;Laerm;32856;51.422;6.794;2022-10-17T11:13:38;64.21;52.80;77.66;;
47109;Laerm;32856;51.422;6.794;2022-10-17T11:16:11;64.47;53.12;76.34;;
47109;Laerm;32856;51.422;6.794;2022-10-17T11:18:44;62.01;52.39;75.61;;
47109;Laerm;32856;51.422;6.794;2022-10-17T11:21:15;65.79;52.17;77.56;;
47109;Laerm;32856;51.422;6.794;2022-10-17T11:23:46;64.60;53.46;74.38;;
47109;Laerm;32856;51.422;6.794;2022-10-17T11:26:15;66.03;54.57;75.76;;
47109;Laerm;32856;51.422;6.794;2022-10-17T11:28:51;65.08;53.72;75.16;;
47109;Laerm;32856;51.422;6.794;2022-10-17T11:31:19;66.07;54.14;78.03;;
47109;Laerm;32856;51.422;6.794;2022-10-17T11:33:49;64.42;55.33;75.86;;
47109;Laerm;32856;51.422;6.794;2022-10-17T11:36:20;65.13;52.98;76.84;;
47109;Laerm;32856;51.422;6.794;2022-10-17T11:38:49;65.22;53.25;77.32;;
47109;Laerm;32856;51.422;6.794;2022-10-17T11:41:22;63.81;52.64;76.47;;
47109;Laerm;32856;51.422;6.794;2022-10-17T11:43:53;63.52;52.28;75.32;;
47109;Laerm;32856;51.422;6.794;2022-10-17T11:46:23;63.62;52.28;77.58;;
47109;Laerm;32856;51.422;6.794;2022-10-17T11:48:56;67.00;53.49;79.06;;
47109;Laerm;32856;51.422;6.794;2022-10-17T11:51:26;64.29;53.03;75.63;;
47109;Laerm;32856;51.422;6.794;2022-10-17T11:54:16;66.03;53.43;76.21;;
47109;Laerm;32856;51.422;6.794;2022-10-17T11:56:47;66.93;53.47;80.31;;
47109;Laerm;32856;51.422;6.794;2022-10-17T12:02:17;66.53;53.44;83.14;;
47109;Laerm;32856;51.422;6.794;2022-10-17T12:04:52;65.12;53.89;76.52;;
47109;Laerm;32856;51.422;6.794;2022-10-17T12:07:25;61.92;52.36;75.55;;
47109;Laerm;32856;51.422;6.794;2022-10-17T12:09:55;63.69;52.80;77.34;;
47109;Laerm;32856;51.422;6.794;2022-10-17T12:12:27;63.87;51.38;76.27;;
47109;Laerm;32856;51.422;6.794;2022-10-17T12:15:13;65.03;52.72;79.19;;
47109;Laerm;32856;51.422;6.794;2022-10-17T12:17:56;65.00;53.19;80.99;;
47109;Laerm;32856;51.422;6.794;2022-10-17T12:20:30;67.26;53.99;78.44;;
47109;Laerm;32856;51.422;6.794;2022-10-17T12:23:01;66.24;53.25;84.93;;
47109;Laerm;32856;51.422;6.794;2022-10-17T12:25:29;65.22;53.63;81.80;;
47109;Laerm;32856;51.422;6.794;2022-10-17T12:33:30;63.48;52.94;74.75;;
47109;Laerm;32856;51.422;6.794;2022-10-17T12:38:48;65.41;52.36;77.66;;
47109;Laerm;32856;51.422;6.794;2022-10-17T12:41:16;66.53;53.92;80.37;;
47109;Laerm;32856;51.422;6.794;2022-10-17T12:44:05;65.45;53.74;77.20;;
47109;Laerm;32856;51.422;6.794;2022-10-17T12:46:56;65.31;51.68;79.48;;
47109;Laerm;32856;51.422;6.794;2022-10-17T12:52:18;63.90;53.10;75.56;;
47109;Laerm;32856;51.422;6.794;2022-10-17T12:55:04;66.03;53.23;78.80;;
47109;Laerm;32856;51.422;6.794;2022-10-17T12:57:51;64.45;53.12;75.57;;
47109;Laerm;32856;51.422;6.794;2022-10-17T13:00:24;65.84;53.05;76.64;;
47109;Laerm;32856;51.422;6.794;2022-10-17T13:02:57;66.40;54.00;79.40;;
47109;Laerm;32856;51.422;6.794;2022-10-17T13:05:30;65.27;52.98;76.08;;
47109;Laerm;32856;51.422;6.794;2022-10-17T13:08:02;66.79;53.64;78.57;;
47109;Laerm;32856;51.422;6.794;2022-10-17T13:10:34;65.14;53.21;77.92;;
47109;Laerm;32856;51.422;6.794;2022-10-17T13:13:06;66.44;53.04;76.55;;
47109;Laerm;32856;51.422;6.794;2022-10-17T13:15:38;67.83;52.89;83.44;;
47109;Laerm;32856;51.422;6.794;2022-10-17T13:18:12;66.25;53.83;77.73;;
47109;Laerm;32856;51.422;6.794;2022-10-17T13:20:53;67.08;52.10;79.48;;
47109;Laerm;32856;51.422;6.794;2022-10-17T13:23:23;67.16;52.85;81.42;;
47109;Laerm;32856;51.422;6.794;2022-10-17T13:26:05;67.46;52.42;77.40;;
47109;Laerm;32856;51.422;6.794;2022-10-17T13:28:43;66.41;54.35;76.02;;
47109;Laerm;32856;51.422;6.794;2022-10-17T13:31:28;65.50;52.06;76.21;;
47109;Laerm;32856;51.422;6.794;2022-10-17T13:33:58;65.72;50.98;82.69;;
47109;Laerm;32856;51.422;6.794;2022-10-17T13:36:26;65.01;50.60;75.94;;
47109;Laerm;32856;51.422;6.794;2022-10-17T13:38:56;64.50;50.54;75.48;;
47109;Laerm;32856;51.422;6.794;2022-10-17T13:41:25;65.91;52.71;75.25;;
47109;Laerm;32856;51.422;6.794;2022-10-17T13:44:03;64.79;50.43;78.93;;
47109;Laerm;32856;51.422;6.794;2022-10-17T13:46:34;65.62;50.54;78.00;;
47109;Laerm;32856;51.422;6.794;2022-10-17T13:49:13;65.46;52.74;76.35;;
47109;Laerm;32856;51.422;6.794;2022-10-17T13:51:42;65.36;51.90;76.13;;
47109;Laerm;32856;51.422;6.794;2022-10-17T13:54:18;67.28;52.87;83.11;;
47109;Laerm;32856;51.422;6.794;2022-10-17T13:56:47;65.93;52.47;78.59;;
47109;Laerm;32856;51.422;6.794;2022-10-17T13:59:21;63.85;49.21;74.76;;
47109;Laerm;32856;51.422;6.794;2022-10-17T14:01:50;65.92;50.17;77.73;;
47109;Laerm;32856;51.422;6.794;2022-10-17T14:04:17;64.81;51.28;76.72;;
47109;Laerm;32856;51.422;6.794;2022-10-17T14:07:20;64.63;51.20;77.40;;
47109;Laerm;32856;51.422;6.794;2022-10-17T14:09:50;62.83;50.70;75.18;;
47109;Laerm;32856;51.422;6.794;2022-10-17T14:12:26;67.37;51.81;77.33;;
47109;Laerm;32856;51.422;6.794;2022-10-17T14:14:56;66.99;50.15;78.93;;
47109;Laerm;32856;51.422;6.794;2022-10-17T14:17:35;66.38;51.91;78.16;;
47109;Laerm;32856;51.422;6.794;2022-10-17T14:20:04;66.50;50.91;82.43;;
47109;Laerm;32856;51.422;6.794;2022-10-17T14:22:53;65.15;50.92;77.33;;
47109;Laerm;32856;51.422;6.794;2022-10-17T14:25:41;65.02;51.62;76.36;;
47109;Laerm;32856;51.422;6.794;2022-10-17T14:28:13;65.29;50.55;75.40;;
47109;Laerm;32856;51.422;6.794;2022-10-17T14:30:42;66.56;52.06;81.10;;
47109;Laerm;32856;51.422;6.794;2022-10-17T14:33:22;63.69;50.56;75.82;;
47109;Laerm;32856;51.422;6.794;2022-10-17T14:35:49;65.80;51.50;79.23;;
47109;Laerm;32856;51.422;6.794;2022-10-17T14:38:17;65.81;50.92;78.22;;
47109;Laerm;32856;51.422;6.794;2022-10-17T14:40:49;65.08;51.22;77.73;;
47109;Laerm;32856;51.422;6.794;2022-10-17T14:43:19;66.24;49.29;78.97;;
47109;Laerm;32856;51.422;6.794;2022-10-17T14:45:55;67.18;51.93;78.28;;
47109;Laerm;32856;51.422;6.794;2022-10-17T14:48:24;66.17;52.11;78.09;;
47109;Laerm;32856;51.422;6.794;2022-10-17T14:51:05;65.34;52.57;76.18;;